sensor_id;sensor_type;location;lat;lon;timestamp;pressure;altitude;pressure_sealevel;temperature;humidity
13029;BME280;6581;42.662;23.402;2023-02-19T03:06:07;95605.66;;;5.99;70.57
13029;BME280;6581;42.662;23.402;2023-02-19T03:10:18;95630.88;;;6.00;70.83
13029;BME280;6581;42.662;23.402;2023-02-19T04:13:03;95680.19;;;5.10;77.88
13029;BME280;6581;42.662;23.402;2023-02-19T04:47:40;95669.66;;;5.27;75.15
13029;BME280;6581;42.662;23.402;2023-02-19T04:50:41;95699.22;;;5.62;75.18
13029;BME280;6581;42.662;23.402;2023-02-19T04:57:59;95687.38;;;5.86;73.67
13029;BME280;6581;42.662;23.402;2023-02-19T05:04:02;95671.88;;;5.93;72.40
13029;BME280;6581;42.662;23.402;2023-02-19T10:35:16;95585.84;;;15.93;38.80
13029;BME280;6581;42.662;23.402;2023-02-19T11:39:42;95460.91;;;17.40;34.53
13029;BME280;6581;42.662;23.402;2023-02-19T11:50:55;95421.59;;;16.85;35.82
13029;BME280;6581;42.662;23.402;2023-02-19T13:28:04;95254.22;;;18.59;31.96
13029;BME280;6581;42.662;23.402;2023-02-19T13:51:45;95237.72;;;19.39;30.62
13029;BME280;6581;42.662;23.402;2023-02-19T13:54:27;95220.81;;;19.42;30.88
13029;BME280;6581;42.662;23.402;2023-02-19T13:57:26;95223.72;;;19.52;30.97
13029;BME280;6581;42.662;23.402;2023-02-19T13:59:55;95226.03;;;19.30;30.34
13029;BME280;6581;42.662;23.402;2023-02-19T14:02:30;95214.19;;;19.08;31.02
13029;BME280;6581;42.662;23.402;2023-02-19T14:05:13;95213.22;;;18.98;30.56
13029;BME280;6581;42.662;23.402;2023-02-19T14:08:10;95205.19;;;18.78;30.55
13029;BME280;6581;42.662;23.402;2023-02-19T14:15:58;95201.59;;;18.65;30.55
13029;BME280;6581;42.662;23.402;2023-02-19T14:18:42;95209.16;;;18.47;31.66
13029;BME280;6581;42.662;23.402;2023-02-19T14:21:38;95199.53;;;18.03;33.29
13029;BME280;6581;42.662;23.402;2023-02-19T14:24:18;95201.22;;;17.93;33.55
13029;BME280;6581;42.662;23.402;2023-02-19T14:58:05;95154.34;;;18.91;32.91
13029;BME280;6581;42.662;23.402;2023-02-19T15:34:19;95161.31;;;17.18;35.17
13029;BME280;6581;42.662;23.402;2023-02-19T15:36:49;95157.56;;;17.12;35.71
13029;BME280;6581;42.662;23.402;2023-02-19T15:39:29;95166.09;;;17.04;35.92
13029;BME280;6581;42.662;23.402;2023-02-19T15:42:29;95175.81;;;16.91;36.02
13029;BME280;6581;42.662;23.402;2023-02-19T15:45:12;95164.84;;;16.78;36.12
13029;BME280;6581;42.662;23.402;2023-02-19T15:51:35;95177.25;;;16.61;36.49
13029;BME280;6581;42.662;23.402;2023-02-19T15:54:56;95197.94;;;16.54;36.81
13029;BME280;6581;42.662;23.402;2023-02-19T15:57:37;95190.81;;;16.40;37.46
13029;BME280;6581;42.662;23.402;2023-02-19T16:04:27;95186.44;;;16.16;36.93
13029;BME280;6581;42.662;23.402;2023-02-19T16:08:18;95199.81;;;16.16;37.31
13029;BME280;6581;42.662;23.402;2023-02-19T16:22:40;95196.59;;;15.87;38.73
13029;BME280;6581;42.662;23.402;2023-02-19T16:25:35;95192.00;;;15.87;38.42
13029;BME280;6581;42.662;23.402;2023-02-19T16:28:35;95216.03;;;15.91;38.57
13029;BME280;6581;42.662;23.402;2023-02-19T16:31:23;95219.09;;;15.86;38.37
13029;BME280;6581;42.662;23.402;2023-02-19T16:34:17;95220.56;;;15.98;38.29
13029;BME280;6581;42.662;23.402;2023-02-19T16:36:47;95224.72;;;16.02;38.64
13029;BME280;6581;42.662;23.402;2023-02-19T16:39:24;95242.28;;;16.00;38.69
13029;BME280;6581;42.662;23.402;2023-02-19T16:42:16;95236.63;;;15.94;38.99
13029;BME280;6581;42.662;23.402;2023-02-19T16:45:09;95250.31;;;16.00;39.38
13029;BME280;6581;42.662;23.402;2023-02-19T16:47:52;95243.09;;;15.96;38.84
13029;BME280;6581;42.662;23.402;2023-02-19T16:50:25;95257.97;;;15.98;38.35
13029;BME280;6581;42.662;23.402;2023-02-19T16:53:16;95233.22;;;15.90;38.67
13029;BME280;6581;42.662;23.402;2023-02-19T16:56:29;95260.66;;;15.90;38.45
13029;BME280;6581;42.662;23.402;2023-02-19T16:59:31;95241.81;;;15.57;37.94
13029;BME280;6581;42.662;23.402;2023-02-19T17:06:30;95271.94;;;15.57;38.72
13029;BME280;6581;42.662;23.402;2023-02-19T17:10:12;95267.81;;;15.35;38.71
13029;BME280;6581;42.662;23.402;2023-02-19T17:13:03;95283.81;;;15.42;38.64
13029;BME280;6581;42.662;23.402;2023-02-19T17:16:14;95267.94;;;15.06;38.72
13029;BME280;6581;42.662;23.402;2023-02-19T17:20:32;95293.06;;;15.09;39.08
13029;BME280;6581;42.662;23.402;2023-02-19T17:30:33;95302.66;;;14.64;39.47
13029;BME280;6581;42.662;23.402;2023-02-19T17:51:34;95321.69;;;14.48;40.21
13029;BME280;6581;42.662;23.402;2023-02-19T17:55:08;95315.59;;;14.44;40.04
13029;BME280;6581;42.662;23.402;2023-02-19T18:02:37;95320.91;;;14.27;40.07
13029;BME280;6581;42.662;23.402;2023-02-19T18:05:43;95306.06;;;14.18;40.15
13029;BME280;6581;42.662;23.402;2023-02-19T18:08:30;95310.66;;;14.25;40.23
13029;BME280;6581;42.662;23.402;2023-02-19T18:33:45;95379.13;;;14.17;40.25
13029;BME280;6581;42.662;23.402;2023-02-19T18:52:44;95364.94;;;13.74;40.77
13029;BME280;6581;42.662;23.402;2023-02-19T18:55:54;95378.63;;;13.80;40.60
13029;BME280;6581;42.662;23.402;2023-02-19T18:58:56;95373.34;;;13.87;40.64
13029;BME280;6581;42.662;23.402;2023-02-19T19:01:35;95378.66;;;13.87;40.54
13029;BME280;6581;42.662;23.402;2023-02-19T19:04:52;95385.53;;;14.02;40.79
13029;BME280;6581;42.662;23.402;2023-02-19T19:07:28;95397.72;;;14.03;40.63
13029;BME280;6581;42.662;23.402;2023-02-19T19:10:21;95417.53;;;14.09;40.47
13029;BME280;6581;42.662;23.402;2023-02-19T19:18:45;95425.53;;;14.09;40.36
13029;BME280;6581;42.662;23.402;2023-02-19T19:21:38;95424.72;;;13.98;40.83
13029;BME280;6581;42.662;23.402;2023-02-19T19:24:41;95438.44;;;14.00;41.39
13029;BME280;6581;42.662;23.402;2023-02-19T19:27:57;95414.41;;;13.79;41.56
13029;BME280;6581;42.662;23.402;2023-02-19T19:31:45;95421.19;;;13.69;41.99
13029;BME280;6581;42.662;23.402;2023-02-19T19:35:17;95443.69;;;13.79;42.58
13029;BME280;6581;42.662;23.402;2023-02-19T19:45:33;95436.84;;;13.78;42.94
13029;BME280;6581;42.662;23.402;2023-02-19T19:55:12;95448.13;;;13.57;42.87
13029;BME280;6581;42.662;23.402;2023-02-19T19:58:15;95461.06;;;13.59;43.07
13029;BME280;6581;42.662;23.402;2023-02-19T20:00:53;95465.63;;;13.58;42.88
13029;BME280;6581;42.662;23.402;2023-02-19T20:10:59;95473.31;;;13.74;42.25
13029;BME280;6581;42.662;23.402;2023-02-19T20:13:38;95464.16;;;13.64;42.33
13029;BME280;6581;42.662;23.402;2023-02-19T20:16:46;95479.38;;;13.67;42.66
13029;BME280;6581;42.662;23.402;2023-02-19T20:19:26;95483.56;;;13.68;42.46
13029;BME280;6581;42.662;23.402;2023-02-19T20:25:24;95466.75;;;13.57;43.31
13029;BME280;6581;42.662;23.402;2023-02-19T20:28:16;95482.34;;;13.55;43.25
13029;BME280;6581;42.662;23.402;2023-02-19T20:31:23;95485.38;;;13.57;43.28
13029;BME280;6581;42.662;23.402;2023-02-19T20:34:12;95478.91;;;13.51;43.63
13029;BME280;6581;42.662;23.402;2023-02-19T20:37:00;95497.97;;;13.64;44.01
13029;BME280;6581;42.662;23.402;2023-02-19T20:40:26;95491.50;;;13.61;44.23
13029;BME280;6581;42.662;23.402;2023-02-19T20:43:06;95501.00;;;13.59;44.47
13029;BME280;6581;42.662;23.402;2023-02-19T20:46:09;95502.47;;;13.53;44.76
13029;BME280;6581;42.662;23.402;2023-02-19T20:49:28;95485.25;;;13.36;45.02
13029;BME280;6581;42.662;23.402;2023-02-19T20:52:21;95504.69;;;13.44;45.46
13029;BME280;6581;42.662;23.402;2023-02-19T20:54:58;95500.47;;;13.39;45.44
13029;BME280;6581;42.662;23.402;2023-02-19T20:58:04;95500.81;;;13.34;45.97
13029;BME280;6581;42.662;23.402;2023-02-19T21:01:12;95514.94;;;13.42;46.16
13029;BME280;6581;42.662;23.402;2023-02-19T21:04:16;95522.50;;;13.36;46.44
13029;BME280;6581;42.662;23.402;2023-02-19T21:07:18;95523.97;;;13.30;46.92
13029;BME280;6581;42.662;23.402;2023-02-19T21:09:59;95516.31;;;13.21;47.40
13029;BME280;6581;42.662;23.402;2023-02-19T21:13:17;95501.28;;;13.03;47.79
13029;BME280;6581;42.662;23.402;2023-02-19T21:20:34;95496.91;;;12.80;48.72
13029;BME280;6581;42.662;23.402;2023-02-19T21:43:44;95533.75;;;12.78;49.49
13029;BME280;6581;42.662;23.402;2023-02-19T21:46:21;95529.53;;;12.74;49.34
13029;BME280;6581;42.662;23.402;2023-02-19T21:49:11;95531.47;;;12.80;49.25
13029;BME280;6581;42.662;23.402;2023-02-19T21:52:21;95517.38;;;12.73;49.02
13029;BME280;6581;42.662;23.402;2023-02-19T21:55:05;95538.25;;;12.74;48.90
13029;BME280;6581;42.662;23.402;2023-02-19T21:57:37;95547.69;;;12.68;49.09
13029;BME280;6581;42.662;23.402;2023-02-19T22:00:19;95540.16;;;12.74;49.34
13029;BME280;6581;42.662;23.402;2023-02-19T22:03:35;95551.91;;;12.73;49.30
13029;BME280;6581;42.662;23.402;2023-02-19T22:07:01;95548.41;;;12.65;49.40
13029;BME280;6581;42.662;23.402;2023-02-19T22:10:06;95541.13;;;12.59;49.27
13029;BME280;6581;42.662;23.402;2023-02-19T22:15:21;95563.00;;;12.78;48.76
13029;BME280;6581;42.662;23.402;2023-02-19T22:34:59;95585.22;;;12.33;51.29
13029;BME280;6581;42.662;23.402;2023-02-19T22:42:36;95581.00;;;11.99;51.64
13029;BME280;6581;42.662;23.402;2023-02-19T22:49:43;95585.63;;;11.79;52.71
13029;BME280;6581;42.662;23.402;2023-02-19T22:55:47;95618.91;;;11.96;53.04
13029;BME280;6581;42.662;23.402;2023-02-19T22:59:06;95632.31;;;11.80;53.39
13029;BME280;6581;42.662;23.402;2023-02-19T23:01:56;95621.09;;;11.68;54.16
13029;BME280;6581;42.662;23.402;2023-02-19T23:05:37;95614.44;;;11.54;55.14
13029;BME280;6581;42.662;23.402;2023-02-19T23:58:12;95609.88;;;11.32;58.41
